sensor_id;sensor_type;location;lat;lon;timestamp;temperature;humidity
25582;DHT22;13462;50.764;4.332;2023-12-20T00:00:57;6.20;99.90
25582;DHT22;13462;50.764;4.332;2023-12-20T00:03:23;6.10;99.90
25582;DHT22;13462;50.764;4.332;2023-12-20T00:05:49;6.10;99.90
25582;DHT22;13462;50.764;4.332;2023-12-20T00:08:15;6.10;99.90
25582;DHT22;13462;50.764;4.332;2023-12-20T00:10:40;6.00;99.90
25582;DHT22;13462;50.764;4.332;2023-12-20T00:13:06;6.00;99.90
25582;DHT22;13462;50.764;4.332;2023-12-20T00:15:33;6.10;99.90
25582;DHT22;13462;50.764;4.332;2023-12-20T00:17:59;6.20;99.90
25582;DHT22;13462;50.764;4.332;2023-12-20T00:20:24;6.20;99.90
25582;DHT22;13462;50.764;4.332;2023-12-20T00:22:50;6.30;99.90
25582;DHT22;13462;50.764;4.332;2023-12-20T00:25:16;6.30;99.90
25582;DHT22;13462;50.764;4.332;2023-12-20T00:27:41;6.30;99.90
25582;DHT22;13462;50.764;4.332;2023-12-20T00:30:08;6.30;99.90
25582;DHT22;13462;50.764;4.332;2023-12-20T00:32:35;6.30;99.90
25582;DHT22;13462;50.764;4.332;2023-12-20T00:35:01;6.30;99.90
25582;DHT22;13462;50.764;4.332;2023-12-20T00:37:26;6.30;99.90
25582;DHT22;13462;50.764;4.332;2023-12-20T00:39:52;6.30;99.90
25582;DHT22;13462;50.764;4.332;2023-12-20T00:42:18;6.20;99.90
25582;DHT22;13462;50.764;4.332;2023-12-20T00:44:43;6.00;99.90
25582;DHT22;13462;50.764;4.332;2023-12-20T00:47:09;5.90;99.90
25582;DHT22;13462;50.764;4.332;2023-12-20T00:49:34;5.90;99.90
25582;DHT22;13462;50.764;4.332;2023-12-20T00:52:00;5.90;99.90
25582;DHT22;13462;50.764;4.332;2023-12-20T00:54:26;5.90;99.90
25582;DHT22;13462;50.764;4.332;2023-12-20T00:56:51;5.90;99.90
25582;DHT22;13462;50.764;4.332;2023-12-20T00:59:17;5.90;99.90
25582;DHT22;13462;50.764;4.332;2023-12-20T01:01:43;5.80;99.90
25582;DHT22;13462;50.764;4.332;2023-12-20T01:04:09;5.80;99.90
25582;DHT22;13462;50.764;4.332;2023-12-20T01:06:35;5.80;99.90
25582;DHT22;13462;50.764;4.332;2023-12-20T01:09:01;5.70;99.90
25582;DHT22;13462;50.764;4.332;2023-12-20T01:11:26;5.70;99.90
25582;DHT22;13462;50.764;4.332;2023-12-20T01:13:52;5.70;99.90
25582;DHT22;13462;50.764;4.332;2023-12-20T01:16:17;5.60;99.90
25582;DHT22;13462;50.764;4.332;2023-12-20T01:18:43;5.60;99.90
25582;DHT22;13462;50.764;4.332;2023-12-20T01:21:08;5.60;99.90
25582;DHT22;13462;50.764;4.332;2023-12-20T01:23:34;5.50;99.90
25582;DHT22;13462;50.764;4.332;2023-12-20T01:26:03;5.50;99.90
25582;DHT22;13462;50.764;4.332;2023-12-20T01:28:30;5.40;99.90
25582;DHT22;13462;50.764;4.332;2023-12-20T01:30:55;5.40;99.90
25582;DHT22;13462;50.764;4.332;2023-12-20T01:33:21;5.40;99.90
25582;DHT22;13462;50.764;4.332;2023-12-20T01:35:47;5.30;99.90
25582;DHT22;13462;50.764;4.332;2023-12-20T01:38:12;5.40;99.90
25582;DHT22;13462;50.764;4.332;2023-12-20T01:40:38;5.40;99.90
25582;DHT22;13462;50.764;4.332;2023-12-20T01:43:08;5.40;99.90
25582;DHT22;13462;50.764;4.332;2023-12-20T01:45:34;5.40;99.90
25582;DHT22;13462;50.764;4.332;2023-12-20T01:48:00;5.40;99.90
25582;DHT22;13462;50.764;4.332;2023-12-20T01:50:28;5.50;99.90
25582;DHT22;13462;50.764;4.332;2023-12-20T01:52:55;5.50;99.90
25582;DHT22;13462;50.764;4.332;2023-12-20T01:55:24;5.40;99.90
25582;DHT22;13462;50.764;4.332;2023-12-20T01:57:50;5.40;99.90
25582;DHT22;13462;50.764;4.332;2023-12-20T02:00:16;5.30;99.90
25582;DHT22;13462;50.764;4.332;2023-12-20T02:02:44;5.30;99.90
25582;DHT22;13462;50.764;4.332;2023-12-20T02:05:11;5.40;99.90
25582;DHT22;13462;50.764;4.332;2023-12-20T02:07:36;5.40;99.90
25582;DHT22;13462;50.764;4.332;2023-12-20T02:10:03;5.40;99.90
25582;DHT22;13462;50.764;4.332;2023-12-20T02:12:31;5.40;99.90
25582;DHT22;13462;50.764;4.332;2023-12-20T02:14:56;5.40;99.90
25582;DHT22;13462;50.764;4.332;2023-12-20T02:17:22;5.50;99.90
25582;DHT22;13462;50.764;4.332;2023-12-20T02:19:49;5.50;99.90
25582;DHT22;13462;50.764;4.332;2023-12-20T02:22:14;5.50;99.90
25582;DHT22;13462;50.764;4.332;2023-12-20T02:24:40;5.60;99.90
25582;DHT22;13462;50.764;4.332;2023-12-20T02:27:07;5.60;99.90
25582;DHT22;13462;50.764;4.332;2023-12-20T02:29:33;5.60;99.90
25582;DHT22;13462;50.764;4.332;2023-12-20T02:31:59;5.60;99.90
25582;DHT22;13462;50.764;4.332;2023-12-20T02:34:25;5.60;99.90
25582;DHT22;13462;50.764;4.332;2023-12-20T02:36:50;5.70;99.90
25582;DHT22;13462;50.764;4.332;2023-12-20T02:39:16;5.60;99.90
25582;DHT22;13462;50.764;4.332;2023-12-20T02:41:42;5.60;99.90
25582;DHT22;13462;50.764;4.332;2023-12-20T02:44:07;5.60;99.90
25582;DHT22;13462;50.764;4.332;2023-12-20T02:46:33;5.60;99.90
25582;DHT22;13462;50.764;4.332;2023-12-20T02:48:59;5.50;99.90
25582;DHT22;13462;50.764;4.332;2023-12-20T02:51:24;5.50;99.90
25582;DHT22;13462;50.764;4.332;2023-12-20T02:53:50;5.60;99.90
25582;DHT22;13462;50.764;4.332;2023-12-20T02:56:15;5.60;99.90
25582;DHT22;13462;50.764;4.332;2023-12-20T02:58:41;5.60;99.90
25582;DHT22;13462;50.764;4.332;2023-12-20T03:01:07;5.60;99.90
25582;DHT22;13462;50.764;4.332;2023-12-20T03:03:32;5.60;99.90
25582;DHT22;13462;50.764;4.332;2023-12-20T03:05:58;5.60;99.90
25582;DHT22;13462;50.764;4.332;2023-12-20T03:08:24;5.60;99.90
25582;DHT22;13462;50.764;4.332;2023-12-20T03:10:50;5.70;99.90
25582;DHT22;13462;50.764;4.332;2023-12-20T03:13:15;5.80;99.90
25582;DHT22;13462;50.764;4.332;2023-12-20T03:15:41;5.90;99.90
25582;DHT22;13462;50.764;4.332;2023-12-20T03:18:06;5.90;99.90
25582;DHT22;13462;50.764;4.332;2023-12-20T03:20:32;5.80;99.90
25582;DHT22;13462;50.764;4.332;2023-12-20T03:23:00;5.80;99.90
25582;DHT22;13462;50.764;4.332;2023-12-20T03:25:26;5.80;99.90
25582;DHT22;13462;50.764;4.332;2023-12-20T03:27:52;5.90;99.90
25582;DHT22;13462;50.764;4.332;2023-12-20T03:30:18;5.90;99.90
25582;DHT22;13462;50.764;4.332;2023-12-20T03:32:44;6.00;99.90
25582;DHT22;13462;50.764;4.332;2023-12-20T03:35:09;6.00;99.90
25582;DHT22;13462;50.764;4.332;2023-12-20T03:37:35;5.90;99.90
25582;DHT22;13462;50.764;4.332;2023-12-20T03:40:01;6.00;99.90
25582;DHT22;13462;50.764;4.332;2023-12-20T03:42:27;5.90;99.90
25582;DHT22;13462;50.764;4.332;2023-12-20T03:44:53;5.90;99.90
25582;DHT22;13462;50.764;4.332;2023-12-20T03:47:18;5.90;99.90
25582;DHT22;13462;50.764;4.332;2023-12-20T03:49:44;5.90;99.90
25582;DHT22;13462;50.764;4.332;2023-12-20T03:52:09;5.90;99.90
25582;DHT22;13462;50.764;4.332;2023-12-20T03:54:35;5.90;99.90
25582;DHT22;13462;50.764;4.332;2023-12-20T03:57:01;6.00;99.90
25582;DHT22;13462;50.764;4.332;2023-12-20T03:59:26;5.90;99.90
25582;DHT22;13462;50.764;4.332;2023-12-20T04:01:52;5.90;99.90
25582;DHT22;13462;50.764;4.332;2023-12-20T04:04:18;6.00;99.90
25582;DHT22;13462;50.764;4.332;2023-12-20T04:06:44;5.90;99.90
25582;DHT22;13462;50.764;4.332;2023-12-20T04:09:10;6.00;99.90
25582;DHT22;13462;50.764;4.332;2023-12-20T04:11:36;5.90;99.90
25582;DHT22;13462;50.764;4.332;2023-12-20T04:14:02;5.90;99.90
25582;DHT22;13462;50.764;4.332;2023-12-20T04:16:27;6.00;99.90
25582;DHT22;13462;50.764;4.332;2023-12-20T04:18:53;6.00;99.90
25582;DHT22;13462;50.764;4.332;2023-12-20T04:21:19;5.90;99.90
25582;DHT22;13462;50.764;4.332;2023-12-20T04:23:45;6.00;99.90
25582;DHT22;13462;50.764;4.332;2023-12-20T04:26:10;6.00;99.90
25582;DHT22;13462;50.764;4.332;2023-12-20T04:28:36;6.00;99.90
25582;DHT22;13462;50.764;4.332;2023-12-20T04:31:02;6.00;99.90
25582;DHT22;13462;50.764;4.332;2023-12-20T04:33:27;6.00;99.90
25582;DHT22;13462;50.764;4.332;2023-12-20T04:35:53;6.00;99.90
25582;DHT22;13462;50.764;4.332;2023-12-20T04:38:18;5.90;99.90
25582;DHT22;13462;50.764;4.332;2023-12-20T04:40:44;5.70;99.90
25582;DHT22;13462;50.764;4.332;2023-12-20T04:43:10;5.70;99.90
25582;DHT22;13462;50.764;4.332;2023-12-20T04:45:35;5.70;99.90
25582;DHT22;13462;50.764;4.332;2023-12-20T04:48:02;5.70;99.90
25582;DHT22;13462;50.764;4.332;2023-12-20T04:50:28;5.70;99.90
25582;DHT22;13462;50.764;4.332;2023-12-20T04:52:54;5.70;99.90
25582;DHT22;13462;50.764;4.332;2023-12-20T04:55:19;5.80;99.90
25582;DHT22;13462;50.764;4.332;2023-12-20T04:57:45;5.80;99.90
25582;DHT22;13462;50.764;4.332;2023-12-20T05:00:11;5.80;99.90
25582;DHT22;13462;50.764;4.332;2023-12-20T05:02:37;5.80;99.90
25582;DHT22;13462;50.764;4.332;2023-12-20T05:05:03;5.80;99.90
25582;DHT22;13462;50.764;4.332;2023-12-20T05:07:29;5.80;99.90
25582;DHT22;13462;50.764;4.332;2023-12-20T05:09:54;5.90;99.90
25582;DHT22;13462;50.764;4.332;2023-12-20T05:12:20;5.90;99.90
25582;DHT22;13462;50.764;4.332;2023-12-20T05:14:46;5.80;99.90
25582;DHT22;13462;50.764;4.332;2023-12-20T05:17:12;5.80;99.90
25582;DHT22;13462;50.764;4.332;2023-12-20T05:19:37;5.70;99.90
25582;DHT22;13462;50.764;4.332;2023-12-20T05:22:03;5.80;99.90
25582;DHT22;13462;50.764;4.332;2023-12-20T05:24:29;5.80;99.90
25582;DHT22;13462;50.764;4.332;2023-12-20T05:26:55;5.80;99.90
25582;DHT22;13462;50.764;4.332;2023-12-20T05:29:20;5.80;99.90
25582;DHT22;13462;50.764;4.332;2023-12-20T05:31:46;5.60;99.90
25582;DHT22;13462;50.764;4.332;2023-12-20T05:34:12;5.60;99.90
25582;DHT22;13462;50.764;4.332;2023-12-20T05:36:37;5.50;99.90
25582;DHT22;13462;50.764;4.332;2023-12-20T05:39:04;5.50;99.90
25582;DHT22;13462;50.764;4.332;2023-12-20T05:41:30;5.50;99.90
25582;DHT22;13462;50.764;4.332;2023-12-20T05:43:56;5.40;99.90
25582;DHT22;13462;50.764;4.332;2023-12-20T05:46:24;5.40;99.90
25582;DHT22;13462;50.764;4.332;2023-12-20T05:48:50;5.30;99.90
25582;DHT22;13462;50.764;4.332;2023-12-20T05:51:17;5.30;99.90
25582;DHT22;13462;50.764;4.332;2023-12-20T05:53:43;5.20;99.90
25582;DHT22;13462;50.764;4.332;2023-12-20T05:56:09;5.20;99.90
25582;DHT22;13462;50.764;4.332;2023-12-20T05:58:35;5.10;99.90
25582;DHT22;13462;50.764;4.332;2023-12-20T06:01:04;5.10;99.90
25582;DHT22;13462;50.764;4.332;2023-12-20T06:03:30;5.20;99.90
25582;DHT22;13462;50.764;4.332;2023-12-20T06:05:55;5.20;99.90
25582;DHT22;13462;50.764;4.332;2023-12-20T06:08:21;5.20;99.90
25582;DHT22;13462;50.764;4.332;2023-12-20T06:10:47;5.20;99.90
25582;DHT22;13462;50.764;4.332;2023-12-20T06:13:12;5.20;99.90
25582;DHT22;13462;50.764;4.332;2023-12-20T06:15:39;5.20;99.90
25582;DHT22;13462;50.764;4.332;2023-12-20T06:18:05;5.20;99.90
25582;DHT22;13462;50.764;4.332;2023-12-20T06:20:32;5.20;99.90
25582;DHT22;13462;50.764;4.332;2023-12-20T06:22:57;5.10;99.90
25582;DHT22;13462;50.764;4.332;2023-12-20T06:25:23;5.10;99.90
25582;DHT22;13462;50.764;4.332;2023-12-20T06:27:49;5.10;99.90
25582;DHT22;13462;50.764;4.332;2023-12-20T06:30:15;5.10;99.90
25582;DHT22;13462;50.764;4.332;2023-12-20T06:32:41;5.10;99.90
25582;DHT22;13462;50.764;4.332;2023-12-20T06:35:08;5.20;99.90
25582;DHT22;13462;50.764;4.332;2023-12-20T06:37:34;5.20;99.90
25582;DHT22;13462;50.764;4.332;2023-12-20T06:39:59;5.30;99.90
25582;DHT22;13462;50.764;4.332;2023-12-20T06:42:25;5.20;99.90
25582;DHT22;13462;50.764;4.332;2023-12-20T06:44:51;5.30;99.90
25582;DHT22;13462;50.764;4.332;2023-12-20T06:47:16;5.40;99.90
25582;DHT22;13462;50.764;4.332;2023-12-20T06:49:42;5.40;99.90
25582;DHT22;13462;50.764;4.332;2023-12-20T06:52:07;5.30;99.90
25582;DHT22;13462;50.764;4.332;2023-12-20T06:54:33;5.30;99.90
25582;DHT22;13462;50.764;4.332;2023-12-20T06:57:00;5.10;99.90
25582;DHT22;13462;50.764;4.332;2023-12-20T06:59:25;5.00;99.90
25582;DHT22;13462;50.764;4.332;2023-12-20T07:01:51;5.00;99.90
25582;DHT22;13462;50.764;4.332;2023-12-20T07:04:17;5.00;99.90
25582;DHT22;13462;50.764;4.332;2023-12-20T07:06:48;5.00;99.90
25582;DHT22;13462;50.764;4.332;2023-12-20T07:09:14;4.90;99.90
25582;DHT22;13462;50.764;4.332;2023-12-20T07:11:39;5.00;99.90
25582;DHT22;13462;50.764;4.332;2023-12-20T07:14:05;4.90;99.90
25582;DHT22;13462;50.764;4.332;2023-12-20T07:16:31;4.90;99.90
25582;DHT22;13462;50.764;4.332;2023-12-20T07:18:57;4.80;99.90
25582;DHT22;13462;50.764;4.332;2023-12-20T07:21:23;4.80;99.90
25582;DHT22;13462;50.764;4.332;2023-12-20T07:23:48;4.80;99.90
25582;DHT22;13462;50.764;4.332;2023-12-20T07:26:15;4.80;99.90
25582;DHT22;13462;50.764;4.332;2023-12-20T07:28:40;4.80;99.90
25582;DHT22;13462;50.764;4.332;2023-12-20T07:31:06;4.80;99.90
25582;DHT22;13462;50.764;4.332;2023-12-20T07:33:32;4.90;99.90
25582;DHT22;13462;50.764;4.332;2023-12-20T07:35:59;4.80;99.90
25582;DHT22;13462;50.764;4.332;2023-12-20T07:38:25;4.70;99.90
25582;DHT22;13462;50.764;4.332;2023-12-20T07:40:50;4.70;99.90
25582;DHT22;13462;50.764;4.332;2023-12-20T07:43:16;4.80;99.90
25582;DHT22;13462;50.764;4.332;2023-12-20T07:45:41;4.70;99.90
25582;DHT22;13462;50.764;4.332;2023-12-20T07:48:07;4.70;99.90
25582;DHT22;13462;50.764;4.332;2023-12-20T07:50:33;4.70;99.90
25582;DHT22;13462;50.764;4.332;2023-12-20T07:52:58;4.70;99.90
25582;DHT22;13462;50.764;4.332;2023-12-20T07:55:26;4.70;99.90
25582;DHT22;13462;50.764;4.332;2023-12-20T07:57:52;4.80;99.90
25582;DHT22;13462;50.764;4.332;2023-12-20T08:00:18;4.70;99.90
25582;DHT22;13462;50.764;4.332;2023-12-20T08:02:44;4.80;99.90
25582;DHT22;13462;50.764;4.332;2023-12-20T08:05:09;4.80;99.90
25582;DHT22;13462;50.764;4.332;2023-12-20T08:07:35;4.80;99.90
25582;DHT22;13462;50.764;4.332;2023-12-20T08:10:01;4.80;99.90
25582;DHT22;13462;50.764;4.332;2023-12-20T08:12:26;4.70;99.90
25582;DHT22;13462;50.764;4.332;2023-12-20T08:14:53;4.80;99.90
25582;DHT22;13462;50.764;4.332;2023-12-20T08:17:19;4.70;99.90
25582;DHT22;13462;50.764;4.332;2023-12-20T08:19:45;4.80;99.90
25582;DHT22;13462;50.764;4.332;2023-12-20T08:22:11;4.90;99.90
25582;DHT22;13462;50.764;4.332;2023-12-20T08:24:37;4.90;99.90
25582;DHT22;13462;50.764;4.332;2023-12-20T08:27:04;4.90;99.90
25582;DHT22;13462;50.764;4.332;2023-12-20T08:29:30;4.90;99.90
25582;DHT22;13462;50.764;4.332;2023-12-20T08:31:56;5.00;99.90
25582;DHT22;13462;50.764;4.332;2023-12-20T08:34:22;5.00;99.90
25582;DHT22;13462;50.764;4.332;2023-12-20T08:36:50;5.10;99.90
25582;DHT22;13462;50.764;4.332;2023-12-20T08:39:16;5.20;99.90
25582;DHT22;13462;50.764;4.332;2023-12-20T08:41:42;5.30;99.90
25582;DHT22;13462;50.764;4.332;2023-12-20T08:44:08;5.40;99.90
25582;DHT22;13462;50.764;4.332;2023-12-20T08:46:33;5.40;99.90
25582;DHT22;13462;50.764;4.332;2023-12-20T08:48:59;5.60;99.90
25582;DHT22;13462;50.764;4.332;2023-12-20T08:51:25;5.80;99.90
25582;DHT22;13462;50.764;4.332;2023-12-20T08:53:51;5.90;99.90
25582;DHT22;13462;50.764;4.332;2023-12-20T08:56:17;5.90;99.90
25582;DHT22;13462;50.764;4.332;2023-12-20T08:58:44;6.00;99.90
25582;DHT22;13462;50.764;4.332;2023-12-20T09:01:10;5.90;99.90
25582;DHT22;13462;50.764;4.332;2023-12-20T09:03:35;5.80;99.90
25582;DHT22;13462;50.764;4.332;2023-12-20T09:06:01;5.80;99.90
25582;DHT22;13462;50.764;4.332;2023-12-20T09:08:27;5.80;99.90
25582;DHT22;13462;50.764;4.332;2023-12-20T09:10:52;5.70;99.90
25582;DHT22;13462;50.764;4.332;2023-12-20T09:13:18;5.70;99.90
25582;DHT22;13462;50.764;4.332;2023-12-20T09:15:43;5.80;99.90
25582;DHT22;13462;50.764;4.332;2023-12-20T09:18:09;5.90;99.90
25582;DHT22;13462;50.764;4.332;2023-12-20T09:20:35;5.90;99.90
25582;DHT22;13462;50.764;4.332;2023-12-20T09:23:01;6.00;99.90
25582;DHT22;13462;50.764;4.332;2023-12-20T09:25:26;6.20;99.90
25582;DHT22;13462;50.764;4.332;2023-12-20T09:27:52;6.40;99.90
25582;DHT22;13462;50.764;4.332;2023-12-20T09:30:19;6.90;99.90
25582;DHT22;13462;50.764;4.332;2023-12-20T09:32:45;7.70;99.90
25582;DHT22;13462;50.764;4.332;2023-12-20T09:35:11;8.60;99.90
25582;DHT22;13462;50.764;4.332;2023-12-20T09:37:36;9.40;99.90
25582;DHT22;13462;50.764;4.332;2023-12-20T09:40:03;10.00;99.90
25582;DHT22;13462;50.764;4.332;2023-12-20T09:45:20;11.00;99.90
25582;DHT22;13462;50.764;4.332;2023-12-20T09:47:53;10.40;99.90
25582;DHT22;13462;50.764;4.332;2023-12-20T09:50:22;9.70;99.90
25582;DHT22;13462;50.764;4.332;2023-12-20T09:52:51;9.50;99.90
25582;DHT22;13462;50.764;4.332;2023-12-20T09:55:20;9.30;99.90
25582;DHT22;13462;50.764;4.332;2023-12-20T09:57:46;8.90;99.90
25582;DHT22;13462;50.764;4.332;2023-12-20T10:00:13;8.60;99.90
25582;DHT22;13462;50.764;4.332;2023-12-20T10:02:47;8.40;99.90
25582;DHT22;13462;50.764;4.332;2023-12-20T10:05:16;8.20;99.90
25582;DHT22;13462;50.764;4.332;2023-12-20T10:07:45;8.20;99.90
25582;DHT22;13462;50.764;4.332;2023-12-20T10:10:13;8.10;99.90
25582;DHT22;13462;50.764;4.332;2023-12-20T10:12:38;7.90;99.90
25582;DHT22;13462;50.764;4.332;2023-12-20T10:15:05;7.80;99.90
25582;DHT22;13462;50.764;4.332;2023-12-20T10:17:31;7.80;99.90
25582;DHT22;13462;50.764;4.332;2023-12-20T10:19:58;8.00;99.90
25582;DHT22;13462;50.764;4.332;2023-12-20T10:22:24;8.10;99.90
25582;DHT22;13462;50.764;4.332;2023-12-20T10:24:49;8.10;99.90
25582;DHT22;13462;50.764;4.332;2023-12-20T10:27:18;8.10;99.90
25582;DHT22;13462;50.764;4.332;2023-12-20T10:29:45;8.20;99.90
25582;DHT22;13462;50.764;4.332;2023-12-20T10:32:24;8.10;99.90
25582;DHT22;13462;50.764;4.332;2023-12-20T10:34:50;8.10;99.90
25582;DHT22;13462;50.764;4.332;2023-12-20T10:37:16;8.00;99.90
25582;DHT22;13462;50.764;4.332;2023-12-20T10:39:50;7.90;99.90
25582;DHT22;13462;50.764;4.332;2023-12-20T10:42:28;7.80;99.90
25582;DHT22;13462;50.764;4.332;2023-12-20T10:44:55;7.80;99.90
25582;DHT22;13462;50.764;4.332;2023-12-20T10:47:20;7.80;99.90
25582;DHT22;13462;50.764;4.332;2023-12-20T10:49:46;7.80;99.90
25582;DHT22;13462;50.764;4.332;2023-12-20T10:52:13;7.80;99.90
25582;DHT22;13462;50.764;4.332;2023-12-20T10:54:41;7.70;99.90
25582;DHT22;13462;50.764;4.332;2023-12-20T10:57:07;7.70;99.90
25582;DHT22;13462;50.764;4.332;2023-12-20T10:59:35;7.80;99.90
25582;DHT22;13462;50.764;4.332;2023-12-20T11:02:03;7.90;99.90
25582;DHT22;13462;50.764;4.332;2023-12-20T11:04:53;8.00;99.90
25582;DHT22;13462;50.764;4.332;2023-12-20T11:07:29;8.00;99.90
25582;DHT22;13462;50.764;4.332;2023-12-20T11:10:01;8.10;99.90
25582;DHT22;13462;50.764;4.332;2023-12-20T11:12:34;8.10;99.90
25582;DHT22;13462;50.764;4.332;2023-12-20T11:15:01;8.20;99.90
25582;DHT22;13462;50.764;4.332;2023-12-20T11:17:31;8.10;99.90
25582;DHT22;13462;50.764;4.332;2023-12-20T11:22:26;8.00;99.90
25582;DHT22;13462;50.764;4.332;2023-12-20T11:24:54;8.00;99.90
25582;DHT22;13462;50.764;4.332;2023-12-20T11:27:23;8.00;99.90
25582;DHT22;13462;50.764;4.332;2023-12-20T11:29:53;8.00;99.90
25582;DHT22;13462;50.764;4.332;2023-12-20T11:34:57;8.00;99.90
25582;DHT22;13462;50.764;4.332;2023-12-20T11:37:29;8.10;99.90
25582;DHT22;13462;50.764;4.332;2023-12-20T11:39:56;8.10;99.90
25582;DHT22;13462;50.764;4.332;2023-12-20T11:42:22;8.10;99.90
25582;DHT22;13462;50.764;4.332;2023-12-20T11:44:47;8.00;99.90
25582;DHT22;13462;50.764;4.332;2023-12-20T11:47:13;8.10;99.90
25582;DHT22;13462;50.764;4.332;2023-12-20T11:49:41;8.10;99.90
25582;DHT22;13462;50.764;4.332;2023-12-20T11:52:06;8.10;99.90
25582;DHT22;13462;50.764;4.332;2023-12-20T11:54:32;8.10;99.90
25582;DHT22;13462;50.764;4.332;2023-12-20T11:56:58;8.10;99.90
25582;DHT22;13462;50.764;4.332;2023-12-20T11:59:23;8.10;99.90
25582;DHT22;13462;50.764;4.332;2023-12-20T12:01:50;8.20;99.90
25582;DHT22;13462;50.764;4.332;2023-12-20T12:04:15;8.10;99.90
25582;DHT22;13462;50.764;4.332;2023-12-20T12:06:43;8.10;99.90
25582;DHT22;13462;50.764;4.332;2023-12-20T12:09:09;8.20;99.90
25582;DHT22;13462;50.764;4.332;2023-12-20T12:11:34;8.20;99.90
25582;DHT22;13462;50.764;4.332;2023-12-20T12:14:00;8.30;99.90
25582;DHT22;13462;50.764;4.332;2023-12-20T12:16:26;8.30;99.90
25582;DHT22;13462;50.764;4.332;2023-12-20T12:18:58;8.20;99.90
25582;DHT22;13462;50.764;4.332;2023-12-20T12:21:24;8.20;99.90
25582;DHT22;13462;50.764;4.332;2023-12-20T12:23:50;8.30;99.90
25582;DHT22;13462;50.764;4.332;2023-12-20T12:26:16;8.30;99.90
25582;DHT22;13462;50.764;4.332;2023-12-20T12:28:42;8.30;99.90
25582;DHT22;13462;50.764;4.332;2023-12-20T12:31:09;8.40;99.90
25582;DHT22;13462;50.764;4.332;2023-12-20T12:33:38;8.40;99.90
25582;DHT22;13462;50.764;4.332;2023-12-20T12:36:04;8.50;99.90
25582;DHT22;13462;50.764;4.332;2023-12-20T12:38:32;8.50;99.90
25582;DHT22;13462;50.764;4.332;2023-12-20T12:40:58;8.50;99.90
25582;DHT22;13462;50.764;4.332;2023-12-20T12:43:24;8.40;99.90
25582;DHT22;13462;50.764;4.332;2023-12-20T12:45:49;8.40;99.90
25582;DHT22;13462;50.764;4.332;2023-12-20T12:48:15;8.40;99.90
25582;DHT22;13462;50.764;4.332;2023-12-20T12:50:41;8.40;99.90
25582;DHT22;13462;50.764;4.332;2023-12-20T12:53:06;8.50;99.90
25582;DHT22;13462;50.764;4.332;2023-12-20T12:55:34;8.60;99.90
25582;DHT22;13462;50.764;4.332;2023-12-20T12:58:00;8.70;99.90
25582;DHT22;13462;50.764;4.332;2023-12-20T13:00:26;8.70;99.90
25582;DHT22;13462;50.764;4.332;2023-12-20T13:02:51;8.80;99.90
25582;DHT22;13462;50.764;4.332;2023-12-20T13:05:17;8.80;99.90
25582;DHT22;13462;50.764;4.332;2023-12-20T13:07:43;8.90;99.90
25582;DHT22;13462;50.764;4.332;2023-12-20T13:10:10;8.90;99.90
25582;DHT22;13462;50.764;4.332;2023-12-20T13:12:36;9.00;99.90
25582;DHT22;13462;50.764;4.332;2023-12-20T13:15:02;8.90;99.90
25582;DHT22;13462;50.764;4.332;2023-12-20T13:17:29;8.80;99.90
25582;DHT22;13462;50.764;4.332;2023-12-20T13:19:55;8.80;99.90
25582;DHT22;13462;50.764;4.332;2023-12-20T13:22:20;8.80;99.90
25582;DHT22;13462;50.764;4.332;2023-12-20T13:24:46;8.90;99.90
25582;DHT22;13462;50.764;4.332;2023-12-20T13:27:12;8.90;99.90
25582;DHT22;13462;50.764;4.332;2023-12-20T13:29:37;8.90;99.90
25582;DHT22;13462;50.764;4.332;2023-12-20T13:32:03;8.90;99.90
25582;DHT22;13462;50.764;4.332;2023-12-20T13:34:29;9.00;99.90
25582;DHT22;13462;50.764;4.332;2023-12-20T13:36:55;8.90;99.90
25582;DHT22;13462;50.764;4.332;2023-12-20T13:39:22;9.00;99.90
25582;DHT22;13462;50.764;4.332;2023-12-20T13:41:47;9.00;99.90
25582;DHT22;13462;50.764;4.332;2023-12-20T13:44:13;9.00;99.90
25582;DHT22;13462;50.764;4.332;2023-12-20T13:46:40;9.00;99.90
25582;DHT22;13462;50.764;4.332;2023-12-20T13:49:05;9.00;99.90
25582;DHT22;13462;50.764;4.332;2023-12-20T13:51:31;9.10;99.90
25582;DHT22;13462;50.764;4.332;2023-12-20T13:53:57;9.10;99.90
25582;DHT22;13462;50.764;4.332;2023-12-20T13:56:23;9.10;99.90
25582;DHT22;13462;50.764;4.332;2023-12-20T13:58:49;9.00;99.90
25582;DHT22;13462;50.764;4.332;2023-12-20T14:01:16;9.10;99.90
25582;DHT22;13462;50.764;4.332;2023-12-20T14:03:41;9.10;99.90
25582;DHT22;13462;50.764;4.332;2023-12-20T14:06:07;9.10;99.90
25582;DHT22;13462;50.764;4.332;2023-12-20T14:08:33;9.10;99.90
25582;DHT22;13462;50.764;4.332;2023-12-20T14:10:58;9.10;99.90
25582;DHT22;13462;50.764;4.332;2023-12-20T14:13:24;9.10;99.90
25582;DHT22;13462;50.764;4.332;2023-12-20T14:15:50;9.10;99.90
25582;DHT22;13462;50.764;4.332;2023-12-20T14:18:15;9.10;99.90
25582;DHT22;13462;50.764;4.332;2023-12-20T14:20:42;9.00;99.90
25582;DHT22;13462;50.764;4.332;2023-12-20T14:23:08;9.00;99.90
25582;DHT22;13462;50.764;4.332;2023-12-20T14:25:36;9.00;99.90
25582;DHT22;13462;50.764;4.332;2023-12-20T14:28:03;9.10;99.90
25582;DHT22;13462;50.764;4.332;2023-12-20T14:30:29;9.10;99.90
25582;DHT22;13462;50.764;4.332;2023-12-20T14:32:54;9.10;99.90
25582;DHT22;13462;50.764;4.332;2023-12-20T14:35:20;9.10;99.90
25582;DHT22;13462;50.764;4.332;2023-12-20T14:37:46;9.00;99.90
25582;DHT22;13462;50.764;4.332;2023-12-20T14:40:11;9.00;99.90
25582;DHT22;13462;50.764;4.332;2023-12-20T14:42:42;9.10;99.90
25582;DHT22;13462;50.764;4.332;2023-12-20T14:45:08;9.20;99.90
25582;DHT22;13462;50.764;4.332;2023-12-20T14:47:34;9.10;99.90
25582;DHT22;13462;50.764;4.332;2023-12-20T14:50:02;9.10;99.90
25582;DHT22;13462;50.764;4.332;2023-12-20T14:52:29;9.10;99.90
25582;DHT22;13462;50.764;4.332;2023-12-20T14:54:54;9.20;99.90
25582;DHT22;13462;50.764;4.332;2023-12-20T14:57:20;9.20;99.90
25582;DHT22;13462;50.764;4.332;2023-12-20T14:59:45;9.20;99.90
25582;DHT22;13462;50.764;4.332;2023-12-20T15:02:11;9.20;99.90
25582;DHT22;13462;50.764;4.332;2023-12-20T15:04:37;9.20;99.90
25582;DHT22;13462;50.764;4.332;2023-12-20T15:07:02;9.20;99.90
25582;DHT22;13462;50.764;4.332;2023-12-20T15:09:30;9.20;99.90
25582;DHT22;13462;50.764;4.332;2023-12-20T15:11:56;9.20;99.90
25582;DHT22;13462;50.764;4.332;2023-12-20T15:14:22;9.10;99.90
25582;DHT22;13462;50.764;4.332;2023-12-20T15:16:47;9.20;99.90
25582;DHT22;13462;50.764;4.332;2023-12-20T15:19:13;9.30;99.90
25582;DHT22;13462;50.764;4.332;2023-12-20T15:21:39;9.20;99.90
25582;DHT22;13462;50.764;4.332;2023-12-20T15:24:08;9.30;99.90
25582;DHT22;13462;50.764;4.332;2023-12-20T15:26:42;9.20;99.90
25582;DHT22;13462;50.764;4.332;2023-12-20T15:29:08;9.20;99.90
25582;DHT22;13462;50.764;4.332;2023-12-20T15:31:42;9.20;99.90
25582;DHT22;13462;50.764;4.332;2023-12-20T15:34:08;9.10;99.90
25582;DHT22;13462;50.764;4.332;2023-12-20T15:36:34;9.10;99.90
25582;DHT22;13462;50.764;4.332;2023-12-20T15:38:59;9.10;99.90
25582;DHT22;13462;50.764;4.332;2023-12-20T15:41:25;9.10;99.90
25582;DHT22;13462;50.764;4.332;2023-12-20T15:43:51;9.10;99.90
25582;DHT22;13462;50.764;4.332;2023-12-20T15:46:16;9.20;99.90